createdAt,value
2018-07-13T00:02:21.511Z,19.73
2018-07-13T00:04:50.329Z,17.73
2018-07-13T00:07:19.074Z,16.40
2018-07-13T00:09:47.913Z,17.17
2018-07-13T00:12:16.781Z,15.53
2018-07-13T00:14:56.485Z,17.10
2018-07-13T00:17:25.293Z,14.30
2018-07-13T00:19:54.106Z,11.07
2018-07-13T00:22:22.866Z,10.70
2018-07-13T00:24:51.708Z,11.63
2018-07-13T00:27:20.493Z,11.83
2018-07-13T00:29:49.279Z,10.87
2018-07-13T00:32:18.130Z,11.07
2018-07-13T00:34:46.894Z,10.97
2018-07-13T00:37:15.710Z,11.67
2018-07-13T00:39:44.533Z,11.27
2018-07-13T00:42:13.309Z,11.80
2018-07-13T00:44:42.173Z,11.67
2018-07-13T00:47:10.967Z,11.00
2018-07-13T00:49:39.804Z,12.20
2018-07-13T00:52:08.545Z,11.47
2018-07-13T00:54:37.378Z,11.03
2018-07-13T00:57:06.162Z,11.67
2018-07-13T00:59:35.028Z,11.07
2018-07-13T01:02:04.036Z,11.57
2018-07-13T01:04:32.825Z,11.30
2018-07-13T01:07:01.632Z,10.57
2018-07-13T01:09:30.390Z,11.83
2018-07-13T01:11:59.178Z,11.60
2018-07-13T01:14:28.003Z,11.40
2018-07-13T01:16:56.799Z,11.63
2018-07-13T01:19:25.577Z,10.60
2018-07-13T01:21:54.341Z,13.97
2018-07-13T01:24:23.134Z,11.70
2018-07-13T01:26:51.901Z,11.07
2018-07-13T01:29:20.711Z,10.40
2018-07-13T01:31:49.523Z,11.00
2018-07-13T01:34:18.330Z,11.10
2018-07-13T01:36:47.456Z,10.80
2018-07-13T01:39:16.322Z,11.07
2018-07-13T01:41:45.127Z,10.57
2018-07-13T01:44:13.995Z,10.63
2018-07-13T01:46:42.827Z,10.87
2018-07-13T01:49:11.993Z,10.37
2018-07-13T01:51:40.843Z,11.23
2018-07-13T01:54:09.615Z,11.43
2018-07-13T01:56:38.442Z,13.30
2018-07-13T01:59:07.270Z,12.60
2018-07-13T02:01:36.170Z,11.33
2018-07-13T02:04:04.951Z,12.30
2018-07-13T02:06:33.987Z,10.93
2018-07-13T02:09:02.839Z,12.97
2018-07-13T02:11:31.669Z,11.27
2018-07-13T02:14:00.452Z,11.60
2018-07-13T02:16:29.259Z,11.20
2018-07-13T02:18:58.027Z,11.23
2018-07-13T02:21:27.755Z,11.67
2018-07-13T02:23:56.490Z,11.20
2018-07-13T02:26:25.302Z,10.93
2018-07-13T02:28:54.053Z,10.93
2018-07-13T02:31:22.847Z,12.10
2018-07-13T02:33:51.657Z,11.57
2018-07-13T02:36:20.683Z,12.00
2018-07-13T02:38:49.462Z,11.40
2018-07-13T02:41:18.423Z,12.03
2018-07-13T02:43:47.229Z,11.33
2018-07-13T02:46:16.011Z,10.87
2018-07-13T02:48:44.774Z,11.20
2018-07-13T02:51:13.561Z,11.33
2018-07-13T02:53:42.355Z,11.23
2018-07-13T02:56:11.115Z,11.10
2018-07-13T02:58:39.896Z,12.07
2018-07-13T03:01:08.670Z,11.37
2018-07-13T03:03:37.868Z,11.93
2018-07-13T03:06:06.650Z,12.00
2018-07-13T03:08:35.478Z,12.13
2018-07-13T03:11:04.438Z,11.83
2018-07-13T03:13:33.262Z,11.97
2018-07-13T03:16:02.042Z,14.17
2018-07-13T03:18:30.798Z,13.90
2018-07-13T03:20:59.559Z,13.07
2018-07-13T03:23:28.328Z,13.57
2018-07-13T03:25:57.146Z,13.10
2018-07-13T03:28:25.927Z,11.90
2018-07-13T03:30:54.710Z,12.10
2018-07-13T03:33:23.525Z,13.33
2018-07-13T03:35:52.310Z,13.60
2018-07-13T03:38:21.135Z,12.73
2018-07-13T03:40:50.097Z,14.00
2018-07-13T03:43:18.882Z,13.57
2018-07-13T03:45:47.678Z,13.20
2018-07-13T03:48:16.472Z,13.90
2018-07-13T03:50:45.490Z,14.03
2018-07-13T03:53:14.237Z,15.10
2018-07-13T03:55:42.981Z,16.33
2018-07-13T03:58:11.808Z,16.07
2018-07-13T04:00:40.589Z,16.70
2018-07-13T04:03:09.446Z,16.90
2018-07-13T04:05:38.778Z,18.57
2018-07-13T04:08:07.593Z,18.23
2018-07-13T04:10:36.369Z,18.20
2018-07-13T04:13:05.363Z,18.57
2018-07-13T04:15:34.177Z,16.90
2018-07-13T04:18:02.969Z,17.77
2018-07-13T04:20:32.133Z,18.00
2018-07-13T04:23:01.026Z,18.27
2018-07-13T04:25:29.806Z,18.20
2018-07-13T04:27:58.759Z,17.90
2018-07-13T04:30:27.682Z,21.03
2018-07-13T04:32:56.443Z,20.03
2018-07-13T04:35:25.241Z,19.70
2018-07-13T04:37:54.259Z,19.10
2018-07-13T04:40:23.047Z,19.97
2018-07-13T04:42:51.806Z,20.83
2018-07-13T04:45:20.752Z,21.60
2018-07-13T04:47:49.661Z,21.13
2018-07-13T04:50:18.735Z,21.83
2018-07-13T04:52:47.845Z,24.60
2018-07-13T04:55:17.392Z,26.23
2018-07-13T04:57:46.219Z,24.07
2018-07-13T05:00:15.181Z,22.50
2018-07-13T05:02:44.041Z,21.80
2018-07-13T05:05:13.269Z,22.47
2018-07-13T05:07:42.181Z,23.30
2018-07-13T05:10:11.038Z,23.60
2018-07-13T05:12:39.806Z,22.53
2018-07-13T05:15:09.433Z,22.93
2018-07-13T05:17:38.223Z,23.07
2018-07-13T05:20:07.116Z,23.23
2018-07-13T05:22:36.639Z,22.17
2018-07-13T05:25:06.177Z,21.87
2018-07-13T05:27:35.136Z,22.10
2018-07-13T05:30:06.039Z,23.57
2018-07-13T05:32:35.336Z,22.57
2018-07-13T05:35:04.258Z,23.47
2018-07-13T05:37:33.221Z,24.07
2018-07-13T05:40:04.112Z,24.63
2018-07-13T05:42:33.012Z,24.23
2018-07-13T05:45:01.999Z,25.93
2018-07-13T05:47:31.163Z,24.23
2018-07-13T05:50:00.204Z,24.70
2018-07-13T05:52:29.134Z,25.77
2018-07-13T05:54:58.847Z,25.50
2018-07-13T05:57:28.022Z,26.10
2018-07-13T05:59:56.979Z,26.83
2018-07-13T06:02:25.969Z,27.77
2018-07-13T06:04:55.160Z,28.13
2018-07-13T06:07:24.086Z,28.90
2018-07-13T06:09:52.949Z,29.70
2018-07-13T06:12:21.825Z,30.23
2018-07-13T06:14:50.588Z,30.27
2018-07-13T06:17:19.353Z,30.07
2018-07-13T06:19:48.217Z,29.63
2018-07-13T06:22:17.042Z,28.87
2018-07-13T06:24:45.829Z,31.17
2018-07-13T06:27:14.647Z,31.07
2018-07-13T06:29:43.706Z,29.93
2018-07-13T06:32:12.548Z,31.03
2018-07-13T06:34:41.723Z,30.87
2018-07-13T06:37:11.001Z,29.03
2018-07-13T06:39:39.878Z,32.07
2018-07-13T06:42:08.706Z,30.47
2018-07-13T06:44:37.522Z,30.83
2018-07-13T06:47:06.505Z,31.43
2018-07-13T06:49:35.430Z,30.83
2018-07-13T06:52:04.502Z,31.53
2018-07-13T06:54:33.394Z,30.77
2018-07-13T06:57:02.269Z,30.87
2018-07-13T06:59:31.082Z,30.80
2018-07-13T07:01:59.957Z,31.43
2018-07-13T07:04:31.498Z,30.47
2018-07-13T07:07:32.533Z,30.87
2018-07-13T07:10:01.623Z,30.40
2018-07-13T07:12:52.043Z,30.77
2018-07-13T07:15:21.377Z,30.33
2018-07-13T07:17:50.294Z,29.73
2018-07-13T07:20:19.329Z,30.67
2018-07-13T07:22:48.676Z,30.80
2018-07-13T07:25:17.639Z,28.73
2018-07-13T07:27:46.794Z,29.37
2018-07-13T07:30:15.662Z,28.70
2018-07-13T07:32:45.353Z,30.13
2018-07-13T07:35:14.116Z,28.67
2018-07-13T07:37:43.018Z,28.63
2018-07-13T07:40:11.886Z,29.87
2018-07-13T07:42:40.829Z,27.53
2018-07-13T07:45:09.723Z,28.73
2018-07-13T07:47:38.551Z,29.07
2018-07-13T07:50:07.656Z,28.20
2018-07-13T07:52:36.604Z,26.90
2018-07-13T07:55:05.495Z,27.67
2018-07-13T07:57:34.335Z,27.83
2018-07-13T08:00:04.612Z,26.30
2018-07-13T08:02:33.871Z,27.23
2018-07-13T08:05:02.722Z,25.70
2018-07-13T08:07:31.639Z,25.87
2018-07-13T08:10:00.575Z,25.60
2018-07-13T08:12:29.360Z,24.93
2018-07-13T08:14:58.431Z,26.33
2018-07-13T08:17:27.417Z,25.33
2018-07-13T08:19:56.580Z,26.03
2018-07-13T08:22:38.199Z,25.40
2018-07-13T08:25:09.464Z,24.23
2018-07-13T08:27:44.418Z,25.00
2018-07-13T08:30:22.077Z,25.53
2018-07-13T08:32:50.900Z,24.40
2018-07-13T08:35:20.125Z,22.80
2018-07-13T08:37:48.982Z,23.83
2018-07-13T08:40:17.979Z,23.80
2018-07-13T08:42:46.857Z,23.60
2018-07-13T08:45:16.058Z,20.47
2018-07-13T08:47:44.964Z,22.67
2018-07-13T08:50:13.961Z,21.30
2018-07-13T08:52:42.925Z,22.90
2018-07-13T08:55:14.457Z,22.60
2018-07-13T08:57:45.876Z,22.67
2018-07-13T09:00:14.953Z,22.87
2018-07-13T09:02:44.164Z,22.97
2018-07-13T09:05:13.021Z,25.80
2018-07-13T09:07:41.888Z,21.53
2018-07-13T09:10:11.633Z,22.80
2018-07-13T09:12:40.723Z,23.50
2018-07-13T09:15:10.899Z,21.33
2018-07-13T09:17:40.247Z,22.60
2018-07-13T09:20:11.398Z,25.30
2018-07-13T09:22:40.269Z,21.97
2018-07-13T09:25:10.108Z,21.27
2018-07-13T09:27:39.261Z,18.60
2018-07-13T09:30:09.088Z,20.43
2018-07-13T09:32:37.949Z,18.17
2018-07-13T09:35:06.799Z,18.83
2018-07-13T09:37:36.090Z,16.47
2018-07-13T09:40:05.127Z,15.53
2018-07-13T09:42:34.499Z,16.17
2018-07-13T09:45:03.391Z,16.60
2018-07-13T09:47:32.919Z,15.87
2018-07-13T09:50:01.774Z,17.07
2018-07-13T09:52:30.622Z,17.63
2018-07-13T09:54:59.709Z,16.43
2018-07-13T09:57:28.530Z,16.33
2018-07-13T09:59:57.416Z,16.87
2018-07-13T10:02:26.387Z,16.60
2018-07-13T10:04:58.865Z,16.07
2018-07-13T10:07:28.953Z,16.77
2018-07-13T10:09:59.794Z,17.17
2018-07-13T10:12:28.714Z,17.53
2018-07-13T10:14:57.646Z,18.40
2018-07-13T10:17:27.288Z,14.30
2018-07-13T10:19:56.110Z,13.80
2018-07-13T10:22:29.018Z,15.03
2018-07-13T10:25:01.396Z,15.07
2018-07-13T10:27:33.331Z,15.33
2018-07-13T10:30:04.206Z,15.43
2018-07-13T10:32:33.700Z,14.77
2018-07-13T10:35:03.643Z,16.23
2018-07-13T10:37:32.681Z,15.03
2018-07-13T10:40:01.608Z,16.20
2018-07-13T10:42:30.572Z,16.63
2018-07-13T10:44:59.417Z,16.37
2018-07-13T10:47:28.370Z,15.63
2018-07-13T10:49:57.183Z,16.63
2018-07-13T10:52:26.384Z,15.10
2018-07-13T10:54:55.223Z,15.17
2018-07-13T10:57:24.060Z,15.00
2018-07-13T10:59:52.921Z,15.20
2018-07-13T11:02:21.901Z,13.90
2018-07-13T11:04:50.707Z,14.63
2018-07-13T11:07:19.619Z,13.70
2018-07-13T11:09:48.428Z,12.87
2018-07-13T11:12:17.251Z,13.07
2018-07-13T11:14:46.711Z,13.77
2018-07-13T11:17:15.566Z,13.70
2018-07-13T11:19:44.400Z,13.33
2018-07-13T11:22:13.314Z,13.17
2018-07-13T11:24:42.200Z,13.30
2018-07-13T11:27:11.081Z,14.37
2018-07-13T11:29:39.989Z,13.10
2018-07-13T11:32:08.999Z,11.50
2018-07-13T11:34:37.915Z,13.17
2018-07-13T11:37:07.458Z,13.07
2018-07-13T11:39:36.414Z,11.30
2018-07-13T11:42:05.229Z,11.53
2018-07-13T11:44:34.073Z,11.73
2018-07-13T11:47:02.907Z,10.53
2018-07-13T11:49:31.736Z,11.40
2018-07-13T11:52:00.591Z,12.10
2018-07-13T11:54:29.487Z,15.13
2018-07-13T11:56:58.330Z,15.50
2018-07-13T11:59:27.151Z,17.03
2018-07-13T12:01:56.083Z,18.83
2018-07-13T12:04:25.001Z,18.77
2018-07-13T12:06:53.783Z,18.70
2018-07-13T12:09:22.590Z,18.97
2018-07-13T12:11:51.435Z,18.33
2018-07-13T12:14:20.182Z,18.30
2018-07-13T12:16:49.183Z,20.23
2018-07-13T12:19:18.000Z,20.73
2018-07-13T12:21:46.835Z,19.80
2018-07-13T12:24:15.924Z,21.57
2018-07-13T12:26:44.721Z,19.70
2018-07-13T12:29:15.401Z,16.90
2018-07-13T12:31:44.238Z,17.03
2018-07-13T12:34:13.045Z,18.40
2018-07-13T12:36:41.822Z,17.63
2018-07-13T12:39:10.667Z,17.63
2018-07-13T12:41:39.780Z,19.20
2018-07-13T12:44:08.682Z,19.60
2018-07-13T12:46:37.831Z,17.97
2018-07-13T12:49:06.774Z,19.07
2018-07-13T12:51:35.655Z,20.13
2018-07-13T12:54:04.466Z,19.53
2018-07-13T12:56:33.531Z,21.00
2018-07-13T12:59:02.443Z,20.60
2018-07-13T13:01:31.281Z,18.87
2018-07-13T13:04:00.144Z,17.20
2018-07-13T13:06:28.988Z,17.87
2018-07-13T13:08:57.826Z,19.13
2018-07-13T13:11:26.651Z,17.87
2018-07-13T13:13:55.458Z,16.93
2018-07-13T13:16:24.327Z,16.10
2018-07-13T13:18:53.106Z,15.97
2018-07-13T13:21:21.894Z,40.43
2018-07-13T13:23:50.796Z,18.63
2018-07-13T13:26:19.687Z,23.33
2018-07-13T13:28:48.445Z,25.07
2018-07-13T13:31:17.289Z,20.37
2018-07-13T13:33:46.170Z,21.77
2018-07-13T13:36:15.008Z,18.77
2018-07-13T13:38:43.827Z,20.93
2018-07-13T13:41:12.725Z,16.13
2018-07-13T13:43:41.563Z,18.13
2018-07-13T13:46:10.468Z,17.80
2018-07-13T13:48:39.322Z,18.93
2018-07-13T13:51:08.139Z,17.17
2018-07-13T13:53:37.080Z,16.17
2018-07-13T13:56:06.071Z,14.83
2018-07-13T13:58:34.863Z,15.63
2018-07-13T14:01:03.678Z,17.87
2018-07-13T14:03:32.994Z,15.93
2018-07-13T14:06:01.802Z,17.37
2018-07-13T14:08:30.623Z,22.63
2018-07-13T14:10:59.547Z,22.70
2018-07-13T14:13:28.361Z,24.23
2018-07-13T14:15:57.406Z,24.83
2018-07-13T14:18:27.147Z,20.97
2018-07-13T14:20:55.963Z,22.33
2018-07-13T14:23:24.760Z,24.43
2018-07-13T14:25:53.590Z,24.57
2018-07-13T14:28:22.482Z,22.13
2018-07-13T14:30:51.684Z,21.73
2018-07-13T14:33:20.549Z,20.63
2018-07-13T14:35:49.356Z,20.07
2018-07-13T14:38:18.132Z,22.00
2018-07-13T14:40:48.075Z,22.07
2018-07-13T14:43:16.973Z,22.37
2018-07-13T14:45:57.885Z,21.53
2018-07-13T14:48:26.860Z,21.23
2018-07-13T14:50:55.890Z,21.90
2018-07-13T14:53:28.802Z,22.47
2018-07-13T14:55:57.745Z,21.93
2018-07-13T14:58:27.072Z,21.03
2018-07-13T15:00:55.967Z,20.57
2018-07-13T15:03:24.983Z,19.13
2018-07-13T15:05:54.094Z,19.50
2018-07-13T15:08:23.276Z,19.03
2018-07-13T15:10:52.241Z,19.00
2018-07-13T15:13:21.244Z,19.63
2018-07-13T15:15:50.227Z,19.60
2018-07-13T15:18:19.198Z,20.17
2018-07-13T15:20:48.153Z,18.43
2018-07-13T15:23:17.041Z,19.23
2018-07-13T15:25:45.976Z,19.70
2018-07-13T15:28:15.020Z,19.47
2018-07-13T15:30:43.834Z,19.77
2018-07-13T15:33:12.699Z,18.60
2018-07-13T15:35:41.601Z,19.03
2018-07-13T15:38:10.409Z,17.30
2018-07-13T15:40:39.298Z,16.83
2018-07-13T15:43:08.058Z,17.97
2018-07-13T15:45:36.890Z,17.27
2018-07-13T15:48:05.654Z,18.43
2018-07-13T15:50:34.448Z,17.03
2018-07-13T15:53:03.763Z,16.93
2018-07-13T15:55:37.732Z,17.30
2018-07-13T15:58:06.551Z,17.73
2018-07-13T16:00:35.838Z,15.37
2018-07-13T16:03:05.036Z,15.93
2018-07-13T16:05:34.311Z,16.73
2018-07-13T16:08:03.275Z,16.63
2018-07-13T16:10:32.403Z,16.83
2018-07-13T16:13:01.221Z,18.50
2018-07-13T16:15:30.108Z,17.83
2018-07-13T16:17:58.900Z,16.93
2018-07-13T16:20:27.766Z,16.60
2018-07-13T16:22:56.613Z,17.87
2018-07-13T16:25:25.574Z,18.50
2018-07-13T16:27:54.489Z,18.17
2018-07-13T16:30:23.243Z,18.67
2018-07-13T16:32:52.423Z,17.50
2018-07-13T16:35:21.249Z,18.43
2018-07-13T16:37:50.906Z,17.40
2018-07-13T16:40:19.664Z,17.70
2018-07-13T16:42:48.457Z,18.27
2018-07-13T16:45:17.292Z,18.67
2018-07-13T16:47:46.101Z,18.17
2018-07-13T16:50:14.966Z,18.30
2018-07-13T16:52:43.733Z,17.47
2018-07-13T16:55:12.509Z,17.93
2018-07-13T16:57:41.310Z,16.97
2018-07-13T17:00:10.146Z,16.57
2018-07-13T17:02:38.914Z,19.07
2018-07-13T17:05:07.682Z,20.73
2018-07-13T17:07:36.463Z,19.37
2018-07-13T17:10:05.283Z,19.80
2018-07-13T17:12:34.092Z,18.80
2018-07-13T17:15:02.908Z,20.33
2018-07-13T17:17:31.748Z,20.40
2018-07-13T17:20:00.542Z,21.73
2018-07-13T17:22:29.402Z,21.23
2018-07-13T17:24:58.158Z,21.87
2018-07-13T17:27:27.010Z,20.90
2018-07-13T17:29:55.803Z,20.80
2018-07-13T17:32:25.022Z,18.80
2018-07-13T17:34:53.799Z,19.63
2018-07-13T17:37:22.562Z,20.90
2018-07-13T17:39:51.907Z,19.30
2018-07-13T17:42:20.700Z,20.30
2018-07-13T17:44:49.575Z,20.67
2018-07-13T17:47:18.367Z,18.63
2018-07-13T17:49:48.106Z,19.93
2018-07-13T17:52:16.959Z,19.67
2018-07-13T17:54:45.721Z,19.37
2018-07-13T17:57:20.798Z,19.90
2018-07-13T17:59:49.685Z,19.73
2018-07-13T18:02:18.988Z,19.73
2018-07-13T18:04:47.772Z,19.07
2018-07-13T18:07:16.607Z,19.40
2018-07-13T18:09:45.410Z,19.73
2018-07-13T18:12:14.296Z,21.37
2018-07-13T18:14:43.112Z,22.47
2018-07-13T18:17:11.919Z,23.17
2018-07-13T18:19:40.717Z,29.37
2018-07-13T18:22:09.861Z,24.00
2018-07-13T18:24:38.663Z,22.90
2018-07-13T18:27:07.642Z,24.93
2018-07-13T18:29:36.440Z,23.23
2018-07-13T18:32:05.839Z,22.83
2018-07-13T18:34:38.590Z,22.07
2018-07-13T18:37:09.189Z,21.73
2018-07-13T18:39:39.438Z,23.43
2018-07-13T18:42:11.255Z,23.27
2018-07-13T18:44:40.065Z,23.67
2018-07-13T18:47:10.311Z,23.93
2018-07-13T18:49:40.723Z,24.50
2018-07-13T18:52:10.336Z,22.87
2018-07-13T18:54:40.788Z,23.77
2018-07-13T18:57:10.560Z,28.13
2018-07-13T18:59:40.737Z,28.60
2018-07-13T19:02:10.295Z,25.43
2018-07-13T19:04:40.078Z,25.40
2018-07-13T19:07:09.211Z,25.53
2018-07-13T19:09:38.074Z,25.27
2018-07-13T19:12:09.038Z,26.13
2018-07-13T19:14:38.042Z,26.80
2018-07-13T19:17:07.620Z,30.30
2018-07-13T19:19:38.181Z,30.27
2018-07-13T19:22:10.315Z,28.10
2018-07-13T19:24:39.174Z,26.30
2018-07-13T19:27:08.044Z,27.00
2018-07-13T19:29:36.813Z,26.13
2018-07-13T19:32:05.704Z,27.80
2018-07-13T19:34:34.585Z,29.13
2018-07-13T19:37:03.451Z,27.87
2018-07-13T19:39:32.229Z,27.57
2018-07-13T19:42:01.378Z,25.23
2018-07-13T19:44:30.190Z,25.40
2018-07-13T19:46:58.980Z,25.27
2018-07-13T19:49:28.075Z,24.53
2018-07-13T19:51:56.938Z,25.50
2018-07-13T19:54:25.748Z,25.33
2018-07-13T19:56:54.542Z,28.60
2018-07-13T19:59:23.313Z,28.20
2018-07-13T20:01:52.607Z,29.87
2018-07-13T20:04:21.476Z,28.57
2018-07-13T20:06:50.271Z,29.23
2018-07-13T20:09:19.509Z,29.30
2018-07-13T20:11:48.720Z,28.87
2018-07-13T20:14:17.488Z,26.77
2018-07-13T20:16:46.308Z,26.00
2018-07-13T20:19:15.293Z,27.93
2018-07-13T20:21:44.120Z,25.70
2018-07-13T20:24:13.467Z,28.07
2018-07-13T20:26:42.293Z,27.50
2018-07-13T20:29:11.596Z,26.20
2018-07-13T20:31:40.638Z,25.83
2018-07-13T20:34:09.438Z,25.20
2018-07-13T20:36:38.225Z,27.63
2018-07-13T20:39:07.686Z,26.50
2018-07-13T20:41:36.775Z,22.27
2018-07-13T20:44:05.597Z,21.10
2018-07-13T20:46:38.171Z,19.50
2018-07-13T20:49:07.067Z,18.77
2018-07-13T20:51:35.870Z,17.70
2018-07-13T20:54:04.707Z,18.93
2018-07-13T20:56:33.634Z,18.83
2018-07-13T20:59:02.557Z,18.17
2018-07-13T21:01:31.506Z,17.27
2018-07-13T21:04:00.348Z,16.97
2018-07-13T21:06:29.133Z,16.53
2018-07-13T21:08:57.964Z,16.83
2018-07-13T21:11:26.785Z,14.90
2018-07-13T21:13:55.598Z,17.37
2018-07-13T21:16:24.418Z,14.73
2018-07-13T21:18:53.739Z,16.70
2018-07-13T21:21:22.573Z,16.33
2018-07-13T21:23:51.537Z,15.67
2018-07-13T21:26:20.330Z,15.67
2018-07-13T21:28:49.247Z,16.07
2018-07-13T21:31:18.039Z,14.90
2018-07-13T21:33:46.846Z,14.80
2018-07-13T21:36:15.646Z,14.70
2018-07-13T21:38:44.459Z,14.90
2018-07-13T21:41:13.262Z,14.67
2018-07-13T21:43:42.097Z,14.67
2018-07-13T21:46:10.928Z,14.93
2018-07-13T21:48:39.729Z,14.50
2018-07-13T21:51:08.514Z,14.70
2018-07-13T21:53:37.961Z,14.23
2018-07-13T21:56:06.763Z,14.40
2018-07-13T21:58:35.562Z,13.70
2018-07-13T22:01:04.463Z,14.73
2018-07-13T22:03:33.263Z,14.20
2018-07-13T22:06:02.192Z,15.43
2018-07-13T22:08:30.964Z,13.80
2018-07-13T22:10:59.774Z,13.50
2018-07-13T22:13:28.596Z,14.13
2018-07-13T22:15:57.397Z,13.67
2018-07-13T22:18:26.720Z,13.27
2018-07-13T22:20:55.736Z,13.70
2018-07-13T22:23:24.790Z,13.20
2018-07-13T22:25:54.164Z,12.80
2018-07-13T22:28:22.948Z,12.87
2018-07-13T22:30:51.895Z,12.10
2018-07-13T22:33:20.702Z,12.77
2018-07-13T22:35:49.541Z,12.47
2018-07-13T22:38:18.355Z,11.67
2018-07-13T22:40:47.190Z,11.70
2018-07-13T22:43:15.995Z,12.03
2018-07-13T22:45:44.837Z,11.10
2018-07-13T22:48:13.670Z,11.07
2018-07-13T22:50:42.502Z,11.20
2018-07-13T22:53:11.338Z,10.67
2018-07-13T22:55:40.130Z,10.13
2018-07-13T22:58:09.049Z,9.90
2018-07-13T23:00:37.879Z,9.77
2018-07-13T23:03:07.050Z,10.10
2018-07-13T23:05:35.854Z,10.30
2018-07-13T23:08:04.637Z,10.23
2018-07-13T23:10:33.846Z,9.50
2018-07-13T23:13:02.699Z,9.90
2018-07-13T23:15:31.514Z,9.53
2018-07-13T23:18:00.356Z,10.10
2018-07-13T23:20:29.234Z,9.60
2018-07-13T23:22:58.030Z,9.17
2018-07-13T23:25:26.846Z,8.90
2018-07-13T23:27:55.599Z,8.93
2018-07-13T23:30:24.403Z,7.90
2018-07-13T23:32:53.182Z,8.37
2018-07-13T23:35:21.958Z,7.80
2018-07-13T23:37:50.789Z,8.10
2018-07-13T23:40:19.578Z,7.50
2018-07-13T23:42:48.332Z,6.77
2018-07-13T23:45:17.119Z,7.07
2018-07-13T23:47:45.905Z,6.97
2018-07-13T23:50:14.646Z,7.03
2018-07-13T23:52:43.823Z,6.70
2018-07-13T23:55:12.609Z,6.87
2018-07-13T23:57:41.447Z,6.53
